MMZO

Playa De Oro International Airport

Manzanillo, Mexico
TAF MMZO 191700Z 1918/2018 25010KT P6SM SCT020 SCT250 FM200400 03005KT P6SM SCT010 SCT250 FM201600 20006KT P6SM SCT250
Issued Valid From Valid To
Sep-19 @ 17:00 UTC
(8 hours ago)
Sep-19 @ 18:00 UTC
(7 hours ago)
Sep-20 @ 18:00 UTC
(in 17 hours)
Sep-19 @ 18:00 to Sep-20 @ 04:00
TAF MMZO 191700Z 1918/2018 25010KT P6SM SCT020 SCT250
Wind Visibility Clouds
250° at 10 knots Greater than 6 miles
  • Scattered at 2,000' AGL
  • Scattered at 25,000' AGL
From Sep-20 @ 04:00 to Sep-20 @ 16:00
FM200400 03005KT P6SM SCT010 SCT250
Wind Visibility Clouds
30° at 5 knots Greater than 6 miles
  • Scattered at 1,000' AGL
  • Scattered at 25,000' AGL
From Sep-20 @ 16:00 to Sep-20 @ 18:00
FM201600 20006KT P6SM SCT250
Wind Visibility Clouds
200° at 6 knots Greater than 6 miles
  • Scattered at 25,000' AGL
TAF MMZO 191700Z 1918/2018 25010KT P6SM SCT020 SCT250 FM200400 03005KT P6SM SCT010 SCT250 FM201600 20006KT P6SM SCT250
Issued Sep-19 @ 17:00 UTC
(8 hours ago)
Valid From Sep-19 @ 18:00 UTC
(7 hours ago)
Valid To Sep-20 @ 18:00 UTC
(in 17 hours)
Sep-19 @ 18:00 - Sep-20 @ 04:00
Wind Visibility
250° at 10 knots Greater than 6 miles
Clouds
  • Scattered at 2,000' AGL
  • Scattered at 25,000' AGL
From Sep-20 @ 04:00 - Sep-20 @ 16:00
Wind Visibility
30° at 5 knots Greater than 6 miles
Clouds
  • Scattered at 1,000' AGL
  • Scattered at 25,000' AGL
From Sep-20 @ 16:00 - Sep-20 @ 18:00
Wind Visibility
200° at 6 knots Greater than 6 miles
Clouds
  • Scattered at 25,000' AGL